首页
METAR-TAF:

METAR-TAF

机场 :

哥印拜陀, 印度

纬度: 11-01-36N, 经度: 077-02-30E, 海拔: 400米

当前天气观测

该预报发布于28分钟前的02:00 UTC
风速10节,风向西南
温度 24°C
湿度 89%
气压 1008 hPa
能見度: 5000
散云层高于1200英尺
多云层高于8000英尺
轻雾,

METAR: VOCB 220200Z 22010KT 5000 BR SCT012 BKN080 24/22 Q1008 NOSIG

时间: 07:58 (02:28 UTC)

预报

该预报发布于3小时和28分钟前的23:00 UTC
预报有效从22日的 00点(UTC)到 23日的 06点(UTC)
风速5节,风向西南
能見度: 5000
散云层高于1200英尺
多云层高于8000英尺
轻雾
成为
从 22日的 06点(UTC)到 22日的 07点(UTC)
风速10节,风向西南,有时为20节阵风
能見度: 6000
短暂存在
从 22日的 09点(UTC)到 22日的 15点(UTC)
能見度: 4000
散云层高于1200英尺
多云层高于8000英尺
成为
从 22日的 15点(UTC)到 22日的 16点(UTC)
风速10节,风向西南
能見度: 5000
轻雾
成为
从 23日的 00点(UTC)到 23日的 01点(UTC)
风速5节,风向西南
成为
从 22日的 05点(UTC)到 22日的 06点(UTC)
风速10节,风向西南,有时为20节阵风
能見度: 6000

TAF: VOCB 212300Z 2200/2306 22005KT 5000 BR SCT012 BKN080 BECMG 2206/2207 22010G20KT 6000 TEMPO 2209/2215 4000 -TSRA/RA SCT012 FEW020TCU/CB BKN080 BECMG 2215/2216 22010KT 5000 BR BECMG 2300/2301 22005KT BECMG 2205/2206 22010G20KT 6000

超过4000个机场的气象观测和天气预报(METAR&TAF报告)。

可查询的气象台以黄色和红色小点在地图上表示。

将鼠标移到小点上方,可查看气象台名称。

然后点击查看天气观测和预报。

如需切换地图:点击带黑十字的绿色按钮放大地图;点击带横线的绿色按钮缩小地图;或者点击绿色箭头查看邻近地区的地图。


METAR-TAF: